Offutt AFB, Nebraska
Current Conditions -  °F | °C
As of 8:22 PM on Saturday 22 Nov 2014 (Local Time) from KOFF Reporting Station
Overcast Overcast  
Wind Chill: 55°   Ceiling: 800
Heat Index: 55°   Visibility: 10mi
Dew Point: 54°   Wind: 9mph
Humidity: 94%   Direction: 170°S
Pressure: 29.6"   Gusts: NA
Location:  41.13°N, 95.92°W
Report Text: KOFF 230222Z AUTO 17008KT 10SM OVC008 13/12 A2960 RMK AO2
Loading
Personal Weather Stations






























Interactive Weather Map New forecast layout! Learn more

10-Day Weather Forecast

Advertisements
Track Severe Weather on mobile